createdAt,value
2018-08-20T00:00:04.140Z,53.40
2018-08-20T00:02:06.111Z,53.60
2018-08-20T00:04:08.105Z,54.70
2018-08-20T00:06:10.130Z,55.10
2018-08-20T00:08:12.111Z,55.20
2018-08-20T00:10:14.097Z,55.00
2018-08-20T00:12:16.095Z,55.40
2018-08-20T00:14:18.133Z,56.30
2018-08-20T00:16:20.154Z,56.80
2018-08-20T00:18:22.180Z,57.80
2018-08-20T00:20:24.217Z,57.60
2018-08-20T00:22:26.244Z,58.20
2018-08-20T00:24:28.232Z,58.60
2018-08-20T00:26:30.256Z,58.40
2018-08-20T00:28:32.252Z,58.30
2018-08-20T00:30:34.255Z,58.30
2018-08-20T00:32:36.283Z,58.20
2018-08-20T00:34:38.278Z,58.10
2018-08-20T00:36:40.296Z,58.20
2018-08-20T00:38:42.328Z,59.10
2018-08-20T00:40:44.335Z,58.70
2018-08-20T00:42:46.355Z,59.00
2018-08-20T00:44:48.377Z,59.10
2018-08-20T00:46:50.403Z,59.00
2018-08-20T00:48:52.434Z,59.50
2018-08-20T00:50:54.412Z,58.80
2018-08-20T00:52:56.399Z,58.80
2018-08-20T00:54:58.408Z,58.80
2018-08-20T00:57:00.457Z,58.60
2018-08-20T00:59:02.433Z,57.90
2018-08-20T01:01:04.541Z,57.60
2018-08-20T01:03:06.514Z,57.80
2018-08-20T01:05:08.524Z,58.30
2018-08-20T01:07:10.561Z,58.00
2018-08-20T01:09:12.539Z,57.70
2018-08-20T01:11:14.586Z,57.20
2018-08-20T01:13:16.555Z,57.30
2018-08-20T01:15:18.545Z,57.20
2018-08-20T01:17:20.567Z,57.10
2018-08-20T01:19:22.556Z,57.10
2018-08-20T01:21:24.539Z,57.00
2018-08-20T01:23:26.560Z,57.00
2018-08-20T01:25:28.566Z,57.00
2018-08-20T01:27:30.592Z,56.90
2018-08-20T01:29:32.616Z,56.90
2018-08-20T01:31:34.600Z,56.90
2018-08-20T01:33:36.638Z,56.80
2018-08-20T01:35:38.645Z,56.70
2018-08-20T01:37:40.629Z,56.70
2018-08-20T01:39:42.680Z,56.60
2018-08-20T01:41:44.651Z,56.60
2018-08-20T01:43:46.636Z,56.50
2018-08-20T01:45:48.641Z,56.40
2018-08-20T01:47:50.652Z,56.60
2018-08-20T01:49:52.660Z,56.50
2018-08-20T01:51:54.646Z,56.50
2018-08-20T01:53:56.656Z,56.40
2018-08-20T01:55:58.659Z,56.40
2018-08-20T01:58:00.698Z,56.40
2018-08-20T02:00:02.682Z,56.40
2018-08-20T02:02:04.656Z,56.30
2018-08-20T02:04:06.668Z,56.30
2018-08-20T02:06:08.654Z,56.30
2018-08-20T02:08:10.646Z,56.30
2018-08-20T02:10:12.664Z,56.20
2018-08-20T02:12:14.649Z,56.30
2018-08-20T02:14:16.634Z,56.30
2018-08-20T02:16:18.650Z,56.30
2018-08-20T02:18:20.664Z,56.20
2018-08-20T02:20:22.675Z,56.20
2018-08-20T02:22:24.664Z,56.20
2018-08-20T02:24:26.683Z,56.20
2018-08-20T02:26:28.655Z,56.30
2018-08-20T02:28:30.704Z,56.30
2018-08-20T02:30:32.677Z,56.30
2018-08-20T02:32:34.659Z,56.20
2018-08-20T02:34:36.680Z,56.20
2018-08-20T02:36:38.671Z,56.20
2018-08-20T02:38:40.645Z,56.90
2018-08-20T02:40:42.647Z,56.30
2018-08-20T02:42:44.616Z,56.20
2018-08-20T02:44:46.588Z,56.20
2018-08-20T02:46:48.620Z,56.30
2018-08-20T02:48:50.603Z,56.20
2018-08-20T02:50:52.603Z,56.20
2018-08-20T02:52:54.570Z,56.20
2018-08-20T02:54:56.552Z,56.20
2018-08-20T02:56:58.560Z,56.10
2018-08-20T02:59:00.579Z,56.20
2018-08-20T03:01:02.588Z,56.20
2018-08-20T03:03:04.585Z,56.20
2018-08-20T03:05:06.574Z,56.30
2018-08-20T03:07:08.560Z,56.20
2018-08-20T03:09:10.544Z,56.30
2018-08-20T03:11:12.528Z,56.90
2018-08-20T03:13:14.535Z,56.10
2018-08-20T03:15:16.514Z,55.70
2018-08-20T03:17:18.489Z,56.00
2018-08-20T03:19:20.470Z,56.00
2018-08-20T03:21:22.459Z,56.10
2018-08-20T03:23:24.471Z,56.00
2018-08-20T03:25:26.512Z,55.90
2018-08-20T03:27:28.520Z,56.00
2018-08-20T03:29:30.524Z,55.90
2018-08-20T03:31:32.535Z,56.00
2018-08-20T03:33:34.524Z,56.00
2018-08-20T03:35:36.545Z,56.00
2018-08-20T03:37:38.550Z,56.00
2018-08-20T03:39:40.532Z,56.00
2018-08-20T03:41:42.505Z,56.00
2018-08-20T03:43:44.552Z,56.00
2018-08-20T03:45:46.542Z,56.10
2018-08-20T03:47:48.542Z,56.00
2018-08-20T03:49:50.564Z,56.00
2018-08-20T03:51:52.549Z,56.00
2018-08-20T03:53:54.564Z,56.00
2018-08-20T03:55:56.537Z,56.00
2018-08-20T03:57:58.557Z,56.10
2018-08-20T04:00:00.533Z,56.10
2018-08-20T04:02:02.497Z,56.10
2018-08-20T04:04:04.513Z,56.00
2018-08-20T04:06:06.505Z,56.00
2018-08-20T04:08:08.502Z,56.00
2018-08-20T04:10:10.531Z,56.10
2018-08-20T04:12:12.541Z,56.00
2018-08-20T04:14:14.563Z,56.00
2018-08-20T04:16:16.692Z,56.00
2018-08-20T04:18:18.654Z,56.10
2018-08-20T04:20:20.643Z,56.10
2018-08-20T04:22:22.683Z,56.00
2018-08-20T04:24:24.663Z,56.20
2018-08-20T04:26:26.652Z,56.30
2018-08-20T04:28:28.657Z,55.90
2018-08-20T04:30:30.649Z,56.00
2018-08-20T04:32:32.631Z,56.10
2018-08-20T04:34:34.659Z,56.30
2018-08-20T04:36:36.634Z,56.20
2018-08-20T04:38:38.669Z,56.40
2018-08-20T04:40:40.649Z,56.40
2018-08-20T04:42:42.673Z,56.60
2018-08-20T04:44:44.690Z,57.10
2018-08-20T04:46:46.667Z,57.20
2018-08-20T04:48:48.661Z,57.60
2018-08-20T04:50:50.843Z,57.50
2018-08-20T04:52:52.708Z,57.20
2018-08-20T04:54:54.703Z,57.00
2018-08-20T04:56:56.727Z,57.10
2018-08-20T04:58:58.713Z,57.20
2018-08-20T05:01:00.737Z,57.20
2018-08-20T05:03:02.755Z,57.30
2018-08-20T05:05:04.845Z,57.20
2018-08-20T05:07:06.858Z,57.30
2018-08-20T05:09:09.129Z,57.30
2018-08-20T05:11:11.095Z,57.30
2018-08-20T05:13:13.100Z,57.20
2018-08-20T05:15:15.081Z,57.30
2018-08-20T05:17:17.069Z,57.30
2018-08-20T05:19:19.085Z,57.30
2018-08-20T05:21:21.063Z,57.40
2018-08-20T05:23:23.063Z,57.30
2018-08-20T05:25:25.070Z,57.50
2018-08-20T05:27:27.067Z,57.40
2018-08-20T05:29:29.156Z,57.40
2018-08-20T05:31:31.075Z,57.40
2018-08-20T05:33:33.093Z,57.40
2018-08-20T05:35:35.105Z,57.50
2018-08-20T05:37:37.089Z,57.40
2018-08-20T05:39:39.121Z,57.50
2018-08-20T05:41:41.091Z,57.50
2018-08-20T05:43:43.087Z,57.50
2018-08-20T05:45:45.113Z,57.50
2018-08-20T05:47:47.127Z,57.40
2018-08-20T05:49:49.118Z,57.30
2018-08-20T05:51:51.121Z,57.40
2018-08-20T05:53:53.102Z,57.30
2018-08-20T05:55:55.090Z,57.30
2018-08-20T05:57:57.121Z,57.30
2018-08-20T05:59:59.132Z,57.40
2018-08-20T06:02:01.165Z,57.20
2018-08-20T06:04:03.147Z,57.20
2018-08-20T06:06:05.129Z,57.30
2018-08-20T06:08:07.157Z,57.30
2018-08-20T06:10:09.189Z,57.30
2018-08-20T06:12:11.212Z,57.30
2018-08-20T06:14:13.187Z,57.20
2018-08-20T06:16:15.218Z,57.20
2018-08-20T06:18:17.249Z,57.30
2018-08-20T06:20:19.267Z,57.30
2018-08-20T06:22:21.305Z,57.20
2018-08-20T06:24:23.337Z,57.20
2018-08-20T06:26:25.323Z,57.20
2018-08-20T06:28:27.305Z,57.20
2018-08-20T06:30:29.331Z,57.20
2018-08-20T06:32:31.318Z,57.20
2018-08-20T06:34:33.285Z,57.20
2018-08-20T06:36:35.321Z,57.20
2018-08-20T06:38:37.363Z,57.10
2018-08-20T06:40:39.336Z,57.20
2018-08-20T06:42:41.357Z,57.30
2018-08-20T06:44:43.353Z,57.10
2018-08-20T06:46:45.364Z,57.10
2018-08-20T06:48:47.393Z,57.20
2018-08-20T06:50:49.818Z,57.10
2018-08-20T06:52:51.840Z,57.10
2018-08-20T06:54:53.866Z,57.10
2018-08-20T06:56:55.892Z,57.10
2018-08-20T06:58:57.909Z,57.10
2018-08-20T07:00:59.918Z,57.10
2018-08-20T07:03:01.945Z,57.10
2018-08-20T07:05:03.939Z,57.10
2018-08-20T07:07:05.957Z,57.00
2018-08-20T07:09:07.999Z,57.10
2018-08-20T07:11:10.005Z,57.00
2018-08-20T07:13:12.047Z,57.10
2018-08-20T07:15:14.013Z,57.10
2018-08-20T07:17:16.013Z,57.10
2018-08-20T07:19:17.995Z,57.10
2018-08-20T07:21:19.990Z,57.10
2018-08-20T07:23:22.046Z,57.10
2018-08-20T07:25:24.053Z,57.10
2018-08-20T07:27:26.034Z,57.10
2018-08-20T07:29:28.026Z,57.10
2018-08-20T07:31:30.043Z,57.10
2018-08-20T07:33:32.062Z,57.10
2018-08-20T07:35:34.068Z,57.10
2018-08-20T07:37:36.084Z,57.20
2018-08-20T07:39:38.072Z,57.20
2018-08-20T07:41:40.062Z,57.10
2018-08-20T07:43:42.084Z,57.20
2018-08-20T07:45:44.052Z,57.20
2018-08-20T07:47:46.036Z,57.20
2018-08-20T07:49:48.059Z,57.20
2018-08-20T07:51:50.122Z,57.10
2018-08-20T07:53:52.294Z,57.20
2018-08-20T07:55:54.332Z,57.20
2018-08-20T07:57:56.308Z,57.20
2018-08-20T07:59:58.317Z,57.20
2018-08-20T08:02:00.293Z,57.20
2018-08-20T08:04:02.304Z,57.20
2018-08-20T08:06:04.339Z,57.20
2018-08-20T08:08:06.333Z,57.20
2018-08-20T08:10:08.302Z,57.20
2018-08-20T08:12:10.334Z,57.20
2018-08-20T08:14:12.362Z,57.20
2018-08-20T08:16:14.314Z,57.20
2018-08-20T08:18:16.288Z,57.20
2018-08-20T08:20:18.292Z,57.30
2018-08-20T08:22:20.270Z,57.20
2018-08-20T08:24:22.279Z,57.20
2018-08-20T08:26:24.288Z,57.20
2018-08-20T08:28:26.259Z,57.20
2018-08-20T08:30:28.275Z,57.20
2018-08-20T08:32:30.293Z,57.20
2018-08-20T08:34:32.274Z,57.20
2018-08-20T08:36:34.290Z,57.20
2018-08-20T08:38:36.309Z,57.20
2018-08-20T08:40:38.284Z,57.20
2018-08-20T08:42:40.295Z,57.20
2018-08-20T08:44:42.324Z,57.20
2018-08-20T08:46:44.348Z,57.20
2018-08-20T08:48:46.357Z,57.20
2018-08-20T08:50:48.343Z,57.30
2018-08-20T08:52:50.340Z,57.20
2018-08-20T08:54:52.318Z,57.20
2018-08-20T08:56:54.344Z,57.20
2018-08-20T08:58:56.303Z,57.20
2018-08-20T09:00:58.284Z,57.10
2018-08-20T09:03:00.316Z,57.20
2018-08-20T09:05:02.308Z,57.10
2018-08-20T09:07:04.309Z,57.10
2018-08-20T09:09:06.290Z,57.10
2018-08-20T09:11:08.295Z,57.10
2018-08-20T09:13:10.285Z,57.10
2018-08-20T09:15:12.320Z,57.10
2018-08-20T09:17:14.296Z,57.10
2018-08-20T09:19:16.304Z,57.10
2018-08-20T09:21:18.294Z,57.10
2018-08-20T09:23:20.282Z,57.10
2018-08-20T09:25:22.301Z,57.10
2018-08-20T09:27:24.276Z,57.10
2018-08-20T09:29:26.262Z,57.10
2018-08-20T09:31:28.278Z,57.10
2018-08-20T09:33:30.517Z,57.10
2018-08-20T09:35:32.535Z,57.10
2018-08-20T09:37:34.507Z,57.00
2018-08-20T09:39:36.493Z,57.00
2018-08-20T09:41:38.517Z,57.00
2018-08-20T09:43:40.588Z,57.00
2018-08-20T09:45:42.486Z,57.00
2018-08-20T09:47:44.501Z,57.00
2018-08-20T09:49:46.525Z,56.90
2018-08-20T09:51:48.503Z,56.90
2018-08-20T09:53:50.516Z,56.90
2018-08-20T09:55:52.497Z,56.90
2018-08-20T09:57:54.477Z,56.90
2018-08-20T09:59:56.496Z,56.80
2018-08-20T10:01:58.458Z,56.80
2018-08-20T10:04:00.509Z,56.80
2018-08-20T10:06:02.483Z,57.20
2018-08-20T10:08:04.457Z,56.80
2018-08-20T10:10:06.485Z,56.70
2018-08-20T10:12:08.513Z,56.70
2018-08-20T10:14:10.525Z,56.80
2018-08-20T10:16:12.520Z,56.70
2018-08-20T10:18:14.497Z,56.70
2018-08-20T10:20:16.518Z,56.70
2018-08-20T10:22:18.536Z,56.70
2018-08-20T10:24:20.513Z,56.60
2018-08-20T10:26:22.497Z,56.60
2018-08-20T10:28:24.519Z,56.60
2018-08-20T10:30:26.532Z,56.60
2018-08-20T10:32:28.546Z,56.60
2018-08-20T10:34:30.540Z,56.60
2018-08-20T10:36:32.562Z,56.60
2018-08-20T10:38:34.539Z,56.50
2018-08-20T10:40:36.555Z,56.60
2018-08-20T10:42:38.538Z,55.90
2018-08-20T10:44:40.549Z,56.50
2018-08-20T10:46:42.562Z,56.40
2018-08-20T10:48:44.575Z,56.40
2018-08-20T10:50:46.556Z,56.40
2018-08-20T10:52:48.557Z,56.40
2018-08-20T10:54:50.551Z,56.40
2018-08-20T10:56:52.537Z,56.40
2018-08-20T10:58:54.555Z,56.40
2018-08-20T11:00:56.548Z,56.40
2018-08-20T11:02:58.542Z,56.50
2018-08-20T11:05:00.520Z,56.40
2018-08-20T11:07:02.502Z,56.40
2018-08-20T11:09:04.511Z,56.40
2018-08-20T11:11:06.493Z,56.40
2018-08-20T11:13:08.527Z,56.40
2018-08-20T11:15:10.525Z,56.40
2018-08-20T11:17:12.491Z,56.40
2018-08-20T11:19:14.500Z,56.40
2018-08-20T11:21:16.521Z,56.50
2018-08-20T11:23:18.557Z,56.50
2018-08-20T11:25:20.594Z,56.40
2018-08-20T11:27:22.598Z,56.50
2018-08-20T11:29:25.293Z,56.60
2018-08-20T11:31:27.322Z,56.60
2018-08-20T11:33:29.307Z,55.90
2018-08-20T11:35:31.327Z,56.60
2018-08-20T11:37:33.342Z,56.60
2018-08-20T11:39:35.346Z,56.60
2018-08-20T11:41:37.421Z,56.60
2018-08-20T11:43:39.392Z,56.50
2018-08-20T11:45:41.414Z,56.50
2018-08-20T11:47:43.433Z,56.50
2018-08-20T11:49:45.679Z,56.60
2018-08-20T11:51:47.657Z,56.60
2018-08-20T11:53:49.707Z,56.60
2018-08-20T11:55:51.669Z,56.60
2018-08-20T11:57:53.675Z,56.50
2018-08-20T11:59:55.661Z,56.50
2018-08-20T12:01:57.729Z,56.50
2018-08-20T12:04:00.219Z,56.40
2018-08-20T12:06:02.245Z,56.40
2018-08-20T12:08:04.259Z,56.40
2018-08-20T12:10:06.279Z,56.40
2018-08-20T12:12:08.266Z,56.40
2018-08-20T12:14:11.290Z,56.40
2018-08-20T12:16:13.316Z,56.50
2018-08-20T12:18:15.303Z,56.40
2018-08-20T12:20:17.320Z,56.50
2018-08-20T12:22:19.424Z,56.60
2018-08-20T12:24:21.635Z,56.50
2018-08-20T12:26:23.622Z,56.50
2018-08-20T12:28:25.577Z,56.40
2018-08-20T12:30:27.589Z,56.30
2018-08-20T12:32:29.563Z,56.20
2018-08-20T12:34:31.548Z,56.20
2018-08-20T12:36:33.553Z,56.20
2018-08-20T12:38:35.526Z,56.20
2018-08-20T12:40:37.500Z,56.20
2018-08-20T12:42:39.542Z,56.30
2018-08-20T12:44:41.554Z,56.40
2018-08-20T12:46:43.526Z,56.30
2018-08-20T12:48:45.535Z,56.30
2018-08-20T12:50:47.528Z,56.40
2018-08-20T12:52:49.492Z,56.40
2018-08-20T12:54:51.513Z,56.40
2018-08-20T12:56:53.498Z,57.00
2018-08-20T12:58:55.495Z,56.50
2018-08-20T13:00:57.523Z,56.40
2018-08-20T13:02:59.456Z,56.40
2018-08-20T13:05:01.499Z,56.40
2018-08-20T13:07:03.477Z,56.50
2018-08-20T13:09:05.471Z,56.50
2018-08-20T13:11:07.464Z,56.50
2018-08-20T13:13:09.440Z,56.60
2018-08-20T13:15:11.440Z,56.50
2018-08-20T13:17:13.489Z,56.50
2018-08-20T13:19:15.509Z,56.50
2018-08-20T13:21:17.514Z,56.50
2018-08-20T13:23:19.495Z,56.50
2018-08-20T13:25:21.507Z,56.40
2018-08-20T13:27:23.464Z,56.40
2018-08-20T13:29:25.467Z,56.40
2018-08-20T13:31:27.846Z,56.40
2018-08-20T13:33:29.864Z,56.40
2018-08-20T13:35:31.846Z,56.50
2018-08-20T13:37:33.854Z,56.40
2018-08-20T13:39:35.871Z,56.30
2018-08-20T13:41:37.853Z,56.40
2018-08-20T13:43:39.880Z,57.10
2018-08-20T13:45:41.866Z,56.30
2018-08-20T13:47:43.848Z,56.30
2018-08-20T13:49:45.861Z,56.30
2018-08-20T13:51:47.836Z,56.30
2018-08-20T13:53:49.832Z,56.30
2018-08-20T13:55:51.842Z,56.30
2018-08-20T13:57:53.961Z,56.20
2018-08-20T13:59:55.958Z,56.20
2018-08-20T14:01:57.948Z,56.20
2018-08-20T14:03:59.922Z,56.30
2018-08-20T14:06:01.924Z,56.30
2018-08-20T14:08:03.922Z,56.30
2018-08-20T14:10:05.942Z,56.30
2018-08-20T14:12:07.922Z,57.00
2018-08-20T14:14:09.906Z,56.30
2018-08-20T14:16:11.929Z,56.30
2018-08-20T14:18:13.940Z,56.30
2018-08-20T14:20:15.970Z,56.30
2018-08-20T14:22:17.997Z,56.50
2018-08-20T14:24:19.982Z,56.30
2018-08-20T14:26:21.995Z,56.40
2018-08-20T14:28:24.029Z,56.40
2018-08-20T14:30:26.044Z,56.40
2018-08-20T14:32:28.000Z,56.40
2018-08-20T14:34:29.996Z,57.10
2018-08-20T14:36:32.135Z,56.40
2018-08-20T14:38:34.039Z,56.40
2018-08-20T14:40:36.021Z,56.40
2018-08-20T14:42:38.033Z,56.40
2018-08-20T14:44:40.084Z,56.50
2018-08-20T14:46:42.083Z,56.50
2018-08-20T14:48:44.110Z,56.50
2018-08-20T14:50:46.074Z,56.90
2018-08-20T14:52:48.066Z,56.50
2018-08-20T14:54:50.082Z,56.50
2018-08-20T14:56:52.061Z,56.40
2018-08-20T14:58:54.068Z,56.40
2018-08-20T15:00:56.082Z,56.50
2018-08-20T15:02:58.091Z,56.40
2018-08-20T15:05:00.096Z,56.50
2018-08-20T15:07:02.114Z,56.50
2018-08-20T15:09:04.154Z,56.50
2018-08-20T15:11:06.144Z,56.50
2018-08-20T15:13:08.154Z,56.50
2018-08-20T15:15:10.201Z,56.50
2018-08-20T15:17:12.158Z,56.50
2018-08-20T15:19:14.182Z,56.50
2018-08-20T15:21:16.169Z,56.50
2018-08-20T15:23:18.195Z,57.20
2018-08-20T15:25:20.228Z,56.00
2018-08-20T15:27:22.229Z,56.50
2018-08-20T15:29:24.198Z,56.50
2018-08-20T15:31:26.225Z,56.50
2018-08-20T15:33:28.198Z,56.50
2018-08-20T15:35:30.228Z,56.50
2018-08-20T15:37:32.205Z,56.50
2018-08-20T15:39:34.212Z,56.40
2018-08-20T15:41:36.214Z,56.50
2018-08-20T15:43:38.210Z,56.40
2018-08-20T15:45:40.208Z,56.50
2018-08-20T15:47:42.226Z,56.50
2018-08-20T15:49:44.216Z,56.40
2018-08-20T15:51:46.242Z,56.50
2018-08-20T15:53:48.259Z,57.30
2018-08-20T15:55:50.253Z,56.50
2018-08-20T15:57:52.298Z,56.50
2018-08-20T15:59:54.286Z,56.20
2018-08-20T16:01:56.290Z,56.50
2018-08-20T16:03:58.274Z,56.60
2018-08-20T16:06:00.308Z,56.60
2018-08-20T16:08:02.278Z,56.60
2018-08-20T16:10:04.292Z,56.60
2018-08-20T16:12:06.288Z,56.60
2018-08-20T16:14:08.332Z,56.60
2018-08-20T16:16:10.310Z,56.70
2018-08-20T16:18:12.308Z,56.70
2018-08-20T16:20:14.303Z,56.70
2018-08-20T16:22:16.282Z,56.70
2018-08-20T16:24:18.301Z,56.70
2018-08-20T16:26:20.315Z,56.70
2018-08-20T16:28:22.301Z,56.70
2018-08-20T16:30:24.325Z,56.70
2018-08-20T16:32:26.300Z,56.70
2018-08-20T16:34:28.297Z,56.80
2018-08-20T16:36:30.322Z,56.80
2018-08-20T16:38:32.320Z,56.80
2018-08-20T16:40:34.304Z,56.80
2018-08-20T16:42:36.300Z,56.90
2018-08-20T16:44:38.287Z,56.80
2018-08-20T16:46:40.295Z,56.90
2018-08-20T16:48:42.272Z,56.80
2018-08-20T16:50:44.278Z,56.80
2018-08-20T16:52:46.293Z,56.90
2018-08-20T16:54:48.278Z,56.90
2018-08-20T16:56:50.262Z,56.80
2018-08-20T16:58:52.283Z,56.80
2018-08-20T17:00:54.273Z,56.80
2018-08-20T17:02:56.275Z,56.80
2018-08-20T17:04:58.293Z,56.90
2018-08-20T17:07:00.317Z,56.80
2018-08-20T17:09:02.282Z,56.80
2018-08-20T17:11:04.278Z,56.20
2018-08-20T17:13:06.279Z,56.90
2018-08-20T17:15:08.290Z,56.90
2018-08-20T17:17:10.258Z,56.90
2018-08-20T17:19:12.295Z,56.80
2018-08-20T17:21:14.247Z,56.90
2018-08-20T17:23:16.295Z,56.90
2018-08-20T17:25:18.314Z,57.00
2018-08-20T17:27:20.301Z,57.00
2018-08-20T17:29:22.281Z,56.90
2018-08-20T17:31:24.269Z,56.90
2018-08-20T17:33:26.240Z,56.90
2018-08-20T17:35:28.245Z,56.90
2018-08-20T17:37:30.235Z,57.00
2018-08-20T17:39:32.204Z,56.90
2018-08-20T17:41:34.247Z,56.90
2018-08-20T17:43:36.213Z,56.80
2018-08-20T17:45:38.181Z,56.90
2018-08-20T17:47:40.188Z,56.90
2018-08-20T17:49:42.169Z,56.90
2018-08-20T17:51:44.116Z,56.80
2018-08-20T17:53:46.137Z,56.80
2018-08-20T17:55:48.137Z,56.80
2018-08-20T17:57:50.126Z,56.80
2018-08-20T17:59:52.146Z,56.80
2018-08-20T18:01:54.169Z,56.80
2018-08-20T18:03:56.147Z,56.90
2018-08-20T18:05:58.142Z,57.50
2018-08-20T18:08:00.165Z,56.80
2018-08-20T18:10:02.178Z,56.90
2018-08-20T18:12:04.132Z,56.90
2018-08-20T18:14:06.146Z,56.90
2018-08-20T18:16:08.104Z,56.90
2018-08-20T18:18:10.100Z,56.80
2018-08-20T18:20:12.088Z,56.90
2018-08-20T18:22:14.106Z,57.00
2018-08-20T18:24:16.137Z,57.00
2018-08-20T18:26:18.102Z,57.00
2018-08-20T18:28:20.077Z,57.10
2018-08-20T18:30:22.103Z,57.20
2018-08-20T18:32:24.062Z,57.10
2018-08-20T18:34:26.030Z,57.10
2018-08-20T18:36:28.036Z,57.20
2018-08-20T18:38:30.018Z,57.10
2018-08-20T18:40:32.022Z,57.10
2018-08-20T18:42:34.011Z,57.10
2018-08-20T18:44:36.028Z,57.10
2018-08-20T18:46:38.010Z,57.10
2018-08-20T18:48:39.956Z,57.10
2018-08-20T18:50:41.984Z,57.20
2018-08-20T18:52:43.952Z,57.20
2018-08-20T18:54:45.964Z,57.30
2018-08-20T18:56:47.948Z,57.20
2018-08-20T18:58:49.981Z,57.20
2018-08-20T19:00:52.015Z,57.20
2018-08-20T19:02:54.025Z,57.20
2018-08-20T19:04:56.062Z,57.20
2018-08-20T19:06:58.072Z,57.20
2018-08-20T19:09:00.045Z,57.90
2018-08-20T19:11:02.060Z,57.30
2018-08-20T19:13:04.096Z,57.20
2018-08-20T19:15:06.055Z,57.30
2018-08-20T19:17:08.074Z,57.30
2018-08-20T19:19:10.052Z,57.30
2018-08-20T19:21:12.075Z,57.20
2018-08-20T19:23:14.049Z,57.20
2018-08-20T19:25:16.035Z,57.20
2018-08-20T19:27:18.051Z,57.20
2018-08-20T19:29:20.020Z,57.30
2018-08-20T19:31:22.045Z,57.20
2018-08-20T19:33:24.038Z,57.20
2018-08-20T19:35:26.018Z,57.20
2018-08-20T19:37:28.031Z,57.30
2018-08-20T19:39:29.992Z,57.30
2018-08-20T19:41:32.018Z,57.20
2018-08-20T19:43:33.986Z,57.30
2018-08-20T19:45:35.992Z,57.30
2018-08-20T19:47:37.970Z,57.30
2018-08-20T19:49:39.969Z,57.30
2018-08-20T19:51:41.960Z,57.30
2018-08-20T19:53:43.965Z,57.20
2018-08-20T19:55:45.932Z,57.30
2018-08-20T19:57:48.049Z,57.20
2018-08-20T19:59:50.016Z,57.30
2018-08-20T20:01:51.992Z,57.20
2018-08-20T20:03:54.028Z,57.20
2018-08-20T20:05:56.048Z,57.10
2018-08-20T20:07:58.032Z,57.10
2018-08-20T20:10:00.054Z,57.20
2018-08-20T20:12:02.058Z,57.20
2018-08-20T20:14:04.051Z,57.20
2018-08-20T20:16:06.022Z,57.20
2018-08-20T20:18:08.038Z,57.10
2018-08-20T20:20:10.053Z,57.10
2018-08-20T20:22:12.020Z,57.10
2018-08-20T20:24:14.024Z,57.10
2018-08-20T20:26:16.051Z,57.10
2018-08-20T20:28:18.025Z,57.20
2018-08-20T20:30:20.000Z,57.00
2018-08-20T20:32:22.013Z,57.10
2018-08-20T20:34:24.052Z,57.10
2018-08-20T20:36:26.053Z,57.10
2018-08-20T20:38:28.161Z,57.10
2018-08-20T20:40:30.132Z,57.10
2018-08-20T20:42:32.136Z,57.10
2018-08-20T20:44:34.109Z,57.10
2018-08-20T20:46:36.150Z,57.10
2018-08-20T20:48:38.158Z,57.90
2018-08-20T20:50:40.173Z,57.20
2018-08-20T20:52:42.223Z,57.20
2018-08-20T20:54:44.167Z,57.20
2018-08-20T20:56:46.206Z,57.20
2018-08-20T20:58:48.295Z,57.20
2018-08-20T21:00:50.296Z,57.20
2018-08-20T21:02:52.265Z,57.20
2018-08-20T21:04:54.267Z,57.20
2018-08-20T21:06:56.240Z,57.30
2018-08-20T21:08:58.221Z,57.20
2018-08-20T21:11:00.217Z,57.20
2018-08-20T21:13:02.184Z,57.20
2018-08-20T21:15:04.165Z,57.30
2018-08-20T21:17:06.168Z,57.20
2018-08-20T21:19:08.182Z,57.20
2018-08-20T21:21:10.150Z,57.40
2018-08-20T21:23:12.153Z,57.30
2018-08-20T21:25:14.185Z,57.30
2018-08-20T21:27:16.197Z,57.30
2018-08-20T21:29:18.181Z,57.30
2018-08-20T21:31:20.141Z,57.30
2018-08-20T21:33:22.171Z,57.30
2018-08-20T21:35:24.240Z,57.60
2018-08-20T21:37:26.271Z,57.30
2018-08-20T21:39:28.282Z,57.30
2018-08-20T21:41:30.273Z,57.30
2018-08-20T21:43:32.243Z,57.30
2018-08-20T21:45:34.251Z,57.30
2018-08-20T21:47:36.235Z,57.40
2018-08-20T21:49:38.245Z,57.40
2018-08-20T21:51:40.237Z,57.40
2018-08-20T21:53:42.227Z,57.30
2018-08-20T21:55:44.230Z,57.30
2018-08-20T21:57:46.255Z,57.30
2018-08-20T21:59:48.495Z,57.40
2018-08-20T22:01:50.501Z,57.30
2018-08-20T22:03:52.530Z,57.40
2018-08-20T22:05:54.485Z,57.40
2018-08-20T22:07:56.455Z,57.40
2018-08-20T22:09:58.476Z,57.40
2018-08-20T22:12:00.452Z,57.40
2018-08-20T22:14:02.436Z,58.10
2018-08-20T22:16:04.573Z,57.40
2018-08-20T22:18:06.586Z,57.30
2018-08-20T22:20:08.585Z,57.30
2018-08-20T22:22:10.566Z,57.20
2018-08-20T22:24:12.580Z,57.30
2018-08-20T22:26:14.565Z,57.30
2018-08-20T22:28:16.574Z,57.30
2018-08-20T22:30:18.577Z,58.00
2018-08-20T22:32:20.548Z,57.30
2018-08-20T22:34:22.548Z,57.30
2018-08-20T22:36:24.572Z,57.30
2018-08-20T22:38:26.567Z,57.30
2018-08-20T22:40:28.522Z,57.20
2018-08-20T22:42:30.530Z,58.00
2018-08-20T22:44:32.518Z,57.30
2018-08-20T22:46:34.492Z,57.30
2018-08-20T22:48:36.516Z,57.30
2018-08-20T22:50:38.492Z,57.30
2018-08-20T22:52:40.496Z,57.40
2018-08-20T22:54:42.480Z,57.30
2018-08-20T22:56:44.500Z,57.30
2018-08-20T22:58:46.486Z,57.30
2018-08-20T23:00:48.529Z,57.30
2018-08-20T23:02:50.548Z,57.30
2018-08-20T23:04:52.565Z,57.30
2018-08-20T23:06:54.736Z,57.30
2018-08-20T23:08:56.745Z,57.30
2018-08-20T23:10:58.768Z,57.30
2018-08-20T23:13:00.777Z,57.20
2018-08-20T23:15:02.746Z,57.30
2018-08-20T23:17:04.718Z,57.30
2018-08-20T23:19:06.714Z,57.30
2018-08-20T23:21:08.716Z,57.30
2018-08-20T23:23:10.694Z,57.30
2018-08-20T23:25:12.692Z,57.30
2018-08-20T23:27:14.673Z,57.40
2018-08-20T23:29:16.639Z,57.30
2018-08-20T23:31:18.650Z,57.30
2018-08-20T23:33:20.638Z,57.40
2018-08-20T23:35:22.588Z,57.30
2018-08-20T23:37:24.608Z,57.40
2018-08-20T23:39:26.607Z,57.30
2018-08-20T23:41:28.564Z,57.40
2018-08-20T23:43:30.576Z,57.40
2018-08-20T23:45:32.599Z,57.40
2018-08-20T23:47:34.625Z,57.40
2018-08-20T23:49:36.628Z,57.40
2018-08-20T23:51:38.613Z,57.40
2018-08-20T23:53:40.574Z,57.40
2018-08-20T23:55:42.589Z,57.40
2018-08-20T23:57:44.605Z,57.40
2018-08-20T23:59:46.612Z,57.40
